createdAt,value
2022-10-13T00:01:23.747Z,8.23
2022-10-13T00:03:51.770Z,7.88
2022-10-13T00:06:21.163Z,8.30
2022-10-13T00:08:50.881Z,8.32
2022-10-13T00:11:23.577Z,8.23
2022-10-13T00:13:51.424Z,7.90
2022-10-13T00:16:21.470Z,8.00
2022-10-13T00:18:49.792Z,8.32
2022-10-13T00:21:25.003Z,8.45
2022-10-13T00:23:56.179Z,7.28
2022-10-13T00:26:25.382Z,7.40
2022-10-13T00:28:53.890Z,7.45
2022-10-13T00:31:26.712Z,7.35
2022-10-13T00:33:54.807Z,7.38
2022-10-13T00:36:25.768Z,7.57
2022-10-13T00:38:53.948Z,7.32
2022-10-13T00:41:21.864Z,7.25
2022-10-13T00:43:49.535Z,7.68
2022-10-13T00:46:17.054Z,7.70
2022-10-13T00:48:46.130Z,7.70
2022-10-13T00:51:18.699Z,7.70
2022-10-13T00:53:47.513Z,8.20
2022-10-13T00:56:18.105Z,8.57
2022-10-13T00:58:47.356Z,8.55
2022-10-13T01:01:17.200Z,8.35
2022-10-13T01:03:47.883Z,8.73
2022-10-13T01:06:19.777Z,8.67
2022-10-13T01:08:49.916Z,8.70
2022-10-13T01:12:05.125Z,8.68
2022-10-13T01:15:10.427Z,7.95
2022-10-13T01:17:52.095Z,8.15
2022-10-13T01:20:28.903Z,8.82
2022-10-13T01:23:14.456Z,9.82
2022-10-13T01:26:27.730Z,9.70
2022-10-13T01:28:57.688Z,9.57
2022-10-13T01:31:58.009Z,9.90
2022-10-13T01:34:46.254Z,10.32
2022-10-13T01:37:36.024Z,11.05
2022-10-13T01:40:28.804Z,10.38
2022-10-13T01:43:07.974Z,10.45
2022-10-13T01:45:46.160Z,10.30
2022-10-13T01:48:14.590Z,9.95
2022-10-13T01:50:42.441Z,10.20
2022-10-13T01:53:11.520Z,10.15
2022-10-13T01:55:53.189Z,10.05
2022-10-13T01:58:21.025Z,10.27
2022-10-13T02:01:27.295Z,11.40
2022-10-13T02:04:00.459Z,10.75
2022-10-13T02:06:44.556Z,10.77
2022-10-13T02:09:35.168Z,10.82
2022-10-13T02:12:12.124Z,10.27
2022-10-13T02:14:42.098Z,10.85
2022-10-13T02:17:13.284Z,10.50
2022-10-13T02:19:40.634Z,10.23
2022-10-13T02:22:13.388Z,10.88
2022-10-13T02:24:40.970Z,10.32
2022-10-13T02:27:10.611Z,10.55
2022-10-13T02:29:52.983Z,10.32
2022-10-13T02:32:21.516Z,10.45
2022-10-13T02:34:49.673Z,9.80
2022-10-13T02:37:17.076Z,10.90
2022-10-13T02:39:44.321Z,10.00
2022-10-13T02:42:11.914Z,10.43
2022-10-13T02:44:41.252Z,10.48
2022-10-13T02:47:08.532Z,9.85
2022-10-13T02:49:37.996Z,10.77
2022-10-13T02:52:05.240Z,10.15
2022-10-13T02:54:35.362Z,10.05
2022-10-13T02:57:02.608Z,11.10
2022-10-13T02:59:32.262Z,10.20
2022-10-13T03:02:02.064Z,10.23
2022-10-13T03:04:31.565Z,9.77
2022-10-13T03:06:59.019Z,10.73
2022-10-13T03:09:26.486Z,9.70
2022-10-13T03:11:53.816Z,10.35
2022-10-13T03:14:21.128Z,9.70
2022-10-13T03:16:52.948Z,11.02
2022-10-13T03:19:20.490Z,10.23
2022-10-13T03:21:47.935Z,9.57
2022-10-13T03:24:17.659Z,10.15
2022-10-13T03:26:44.942Z,10.25
2022-10-13T03:29:19.257Z,9.93
2022-10-13T03:31:46.681Z,10.68
2022-10-13T03:34:16.468Z,10.27
2022-10-13T03:36:46.027Z,10.13
2022-10-13T03:39:13.803Z,9.82
2022-10-13T03:41:43.526Z,9.90
2022-10-13T03:44:14.223Z,10.05
2022-10-13T03:46:43.610Z,10.50
2022-10-13T03:49:14.279Z,10.85
2022-10-13T03:51:43.925Z,11.27
2022-10-13T03:54:12.788Z,11.35
2022-10-13T03:56:40.488Z,10.00
2022-10-13T03:59:10.831Z,10.80
2022-10-13T04:01:38.968Z,11.07
2022-10-13T04:04:09.224Z,10.73
2022-10-13T04:06:36.449Z,11.32
2022-10-13T04:09:04.394Z,10.95
2022-10-13T04:11:34.154Z,12.00
2022-10-13T04:14:03.772Z,10.82
2022-10-13T04:16:31.731Z,10.88
2022-10-13T04:19:04.742Z,10.95
2022-10-13T04:21:34.523Z,10.63
2022-10-13T04:24:02.836Z,11.48
2022-10-13T04:26:32.394Z,11.32
2022-10-13T04:29:00.255Z,11.73
2022-10-13T04:31:29.308Z,10.88
2022-10-13T04:33:59.184Z,10.55
2022-10-13T04:36:29.201Z,10.60
2022-10-13T04:38:56.756Z,10.90
2022-10-13T04:41:26.311Z,10.18
2022-10-13T04:43:54.264Z,11.27
2022-10-13T04:46:26.694Z,10.52
2022-10-13T04:48:56.335Z,11.48
2022-10-13T04:51:27.579Z,9.88
2022-10-13T04:54:05.521Z,10.20
2022-10-13T04:56:35.255Z,9.38
2022-10-13T04:59:05.826Z,9.93
2022-10-13T05:01:34.135Z,10.40
2022-10-13T05:04:02.475Z,8.60
2022-10-13T05:06:35.197Z,9.77
2022-10-13T05:09:03.956Z,9.82
2022-10-13T05:11:32.092Z,9.38
2022-10-13T05:14:01.116Z,10.07
2022-10-13T05:16:29.336Z,11.75
2022-10-13T05:18:56.790Z,9.75
2022-10-13T05:21:26.930Z,10.32
2022-10-13T05:23:56.296Z,9.95
2022-10-13T05:26:28.874Z,9.27
2022-10-13T05:29:00.559Z,10.07
2022-10-13T05:33:58.200Z,9.45
2022-10-13T05:36:26.781Z,9.68
2022-10-13T05:38:57.148Z,9.05
2022-10-13T05:41:25.819Z,9.27
2022-10-13T05:43:57.835Z,9.05
2022-10-13T05:46:28.083Z,10.00
2022-10-13T05:48:57.774Z,9.40
2022-10-13T05:51:28.223Z,8.70
2022-10-13T05:54:08.557Z,9.20
2022-10-13T05:56:41.199Z,9.13
2022-10-13T05:59:11.093Z,9.07
2022-10-13T06:01:42.897Z,8.93
2022-10-13T06:04:15.113Z,8.90
2022-10-13T06:06:42.448Z,9.35
2022-10-13T06:09:12.766Z,8.98
2022-10-13T06:11:40.073Z,8.85
2022-10-13T06:14:07.376Z,8.30
2022-10-13T06:16:37.023Z,8.73
2022-10-13T06:19:08.036Z,8.90
2022-10-13T06:21:35.865Z,9.27
2022-10-13T06:24:08.641Z,9.15
2022-10-13T06:26:35.871Z,8.90
2022-10-13T06:29:05.587Z,8.98
2022-10-13T06:31:32.978Z,8.80
2022-10-13T06:34:02.800Z,9.07
2022-10-13T06:36:30.125Z,9.52
2022-10-13T06:38:57.528Z,8.18
2022-10-13T06:41:24.795Z,8.93
2022-10-13T06:43:56.899Z,8.93
2022-10-13T06:46:25.524Z,8.45
2022-10-13T06:48:55.668Z,8.65
2022-10-13T06:51:22.915Z,7.82
2022-10-13T06:53:52.441Z,7.97
2022-10-13T06:56:19.707Z,7.30
2022-10-13T06:58:47.107Z,9.90
2022-10-13T07:01:15.030Z,8.60
2022-10-13T07:03:42.338Z,8.15
2022-10-13T07:06:10.544Z,10.02
2022-10-13T07:08:40.359Z,10.77
2022-10-13T07:11:15.420Z,10.15
2022-10-13T07:13:46.966Z,8.98
2022-10-13T07:16:15.703Z,8.52
2022-10-13T07:18:43.056Z,11.57
2022-10-13T07:21:10.488Z,14.68
2022-10-13T07:23:40.130Z,11.13
2022-10-13T07:26:09.050Z,9.80
2022-10-13T07:28:36.833Z,10.27
2022-10-13T07:31:10.985Z,9.15
2022-10-13T07:33:38.763Z,10.63
2022-10-13T07:36:06.520Z,10.93
2022-10-13T07:38:33.961Z,11.02
2022-10-13T07:41:02.691Z,9.95
2022-10-13T07:43:30.416Z,10.13
2022-10-13T07:46:02.012Z,11.50
2022-10-13T07:50:59.069Z,9.38
2022-10-13T07:53:26.382Z,10.35
2022-10-13T07:55:53.672Z,11.77
2022-10-13T07:58:23.373Z,9.85
2022-10-13T08:00:59.520Z,9.60
2022-10-13T08:03:29.999Z,10.00
2022-10-13T08:05:59.942Z,13.77
2022-10-13T08:08:30.657Z,11.73
2022-10-13T08:11:04.732Z,11.80
2022-10-13T08:13:32.460Z,11.57
2022-10-13T08:16:01.366Z,12.05
2022-10-13T08:18:31.397Z,12.85
2022-10-13T08:23:50.817Z,11.10
2022-10-13T08:26:29.674Z,10.35
2022-10-13T08:31:46.689Z,11.00
2022-10-13T08:34:14.167Z,11.18
2022-10-13T08:36:41.554Z,11.27
2022-10-13T08:39:08.908Z,10.65
2022-10-13T08:41:43.850Z,11.55
2022-10-13T08:47:23.916Z,11.88
2022-10-13T08:49:52.710Z,14.98
2022-10-13T08:52:29.280Z,13.35
2022-10-13T08:54:59.302Z,12.20
2022-10-13T08:57:26.624Z,10.40
2022-10-13T08:59:54.411Z,10.90
2022-10-13T09:02:30.881Z,11.50
2022-10-13T09:05:02.395Z,11.38
2022-10-13T09:10:02.084Z,10.38
2022-10-13T09:12:33.925Z,10.13
2022-10-13T09:15:05.793Z,10.25
2022-10-13T09:17:36.745Z,10.00
2022-10-13T09:20:19.121Z,10.63
2022-10-13T09:23:04.972Z,10.57
2022-10-13T09:25:48.379Z,11.77
2022-10-13T09:28:31.742Z,11.55
2022-10-13T09:31:05.102Z,11.52
2022-10-13T09:33:37.301Z,12.25
2022-10-13T09:36:06.330Z,13.13
2022-10-13T09:38:35.002Z,11.13
2022-10-13T09:41:05.361Z,12.20
2022-10-13T09:43:35.504Z,10.23
2022-10-13T09:46:32.757Z,10.82
2022-10-13T09:49:41.830Z,10.57
2022-10-13T09:52:17.527Z,10.00
2022-10-13T09:54:52.259Z,10.93
2022-10-13T09:57:23.216Z,11.52
2022-10-13T10:00:04.352Z,11.05
2022-10-13T10:02:49.577Z,9.75
2022-10-13T10:05:34.161Z,11.05
2022-10-13T10:08:11.529Z,11.65
2022-10-13T10:10:43.697Z,10.85
2022-10-13T10:13:13.169Z,10.23
2022-10-13T10:15:49.806Z,10.05
2022-10-13T10:18:37.837Z,10.48
2022-10-13T10:21:27.046Z,10.02
2022-10-13T10:24:09.232Z,10.00
2022-10-13T10:26:39.330Z,10.48
2022-10-13T10:29:22.291Z,10.18
2022-10-13T10:32:04.874Z,10.25
2022-10-13T10:34:49.355Z,10.45
2022-10-13T10:37:46.511Z,9.43
2022-10-13T10:41:15.264Z,10.27
2022-10-13T10:43:51.353Z,9.73
2022-10-13T10:46:29.167Z,10.15
2022-10-13T10:49:03.949Z,9.98
2022-10-13T10:51:39.039Z,10.18
2022-10-13T10:54:33.854Z,11.48
2022-10-13T10:57:31.477Z,10.18
2022-10-13T11:00:09.989Z,9.63
2022-10-13T11:02:58.832Z,9.73
2022-10-13T11:05:30.812Z,9.95
2022-10-13T11:07:59.213Z,16.80
2022-10-13T11:10:30.552Z,12.88
2022-10-13T11:12:57.745Z,10.77
2022-10-13T11:15:31.128Z,9.57
2022-10-13T11:18:00.901Z,9.55
2022-10-13T11:20:34.281Z,9.38
2022-10-13T11:23:01.464Z,9.40
2022-10-13T11:25:39.980Z,9.07
2022-10-13T11:28:22.578Z,8.95
2022-10-13T11:31:26.525Z,9.23
2022-10-13T11:33:59.198Z,8.30
2022-10-13T11:36:39.459Z,8.38
2022-10-13T11:39:28.424Z,8.70
2022-10-13T11:42:36.809Z,9.27
2022-10-13T11:45:15.836Z,10.95
2022-10-13T11:47:54.112Z,9.70
2022-10-13T11:50:26.538Z,10.80
2022-10-13T11:53:07.634Z,12.00
2022-10-13T11:55:54.181Z,13.80
2022-10-13T11:58:25.747Z,14.18
2022-10-13T12:03:34.345Z,9.65
2022-10-13T12:06:07.779Z,10.05
2022-10-13T12:08:37.943Z,9.23
2022-10-13T12:11:07.721Z,9.02
2022-10-13T12:13:36.956Z,9.18
2022-10-13T12:16:08.139Z,9.10
2022-10-13T12:18:40.232Z,8.68
2022-10-13T12:21:11.817Z,9.00
2022-10-13T12:26:09.329Z,9.85
2022-10-13T12:28:54.356Z,10.38
2022-10-13T12:31:23.304Z,9.98
2022-10-13T12:34:01.748Z,10.15
2022-10-13T12:36:38.012Z,9.90
2022-10-13T12:39:10.808Z,16.65
2022-10-13T12:41:43.614Z,10.95
2022-10-13T12:44:23.069Z,9.57
2022-10-13T12:46:53.170Z,9.18
2022-10-13T12:49:25.364Z,9.05
2022-10-13T12:52:14.936Z,9.13
2022-10-13T12:54:54.788Z,9.40
2022-10-13T12:57:38.324Z,9.25
2022-10-13T13:00:20.917Z,8.27
2022-10-13T13:02:56.456Z,8.85
2022-10-13T13:05:32.646Z,9.35
2022-10-13T13:08:00.952Z,9.02
2022-10-13T13:10:31.209Z,8.15
2022-10-13T13:13:16.665Z,8.43
2022-10-13T13:15:44.086Z,9.18
2022-10-13T13:18:39.865Z,8.20
2022-10-13T13:21:09.980Z,9.88
2022-10-13T13:23:37.507Z,10.93
2022-10-13T13:26:14.793Z,10.07
2022-10-13T13:28:48.773Z,9.75
2022-10-13T13:31:18.467Z,8.82
2022-10-13T13:33:46.623Z,9.20
2022-10-13T13:36:19.748Z,8.20
2022-10-13T13:38:49.886Z,7.80
2022-10-13T13:41:19.926Z,8.48
2022-10-13T13:43:49.841Z,8.52
2022-10-13T13:46:22.700Z,8.55
2022-10-13T13:48:54.820Z,9.18
2022-10-13T13:51:27.712Z,9.57
2022-10-13T13:53:54.989Z,10.02
2022-10-13T13:56:22.283Z,9.15
2022-10-13T13:58:49.543Z,8.65
2022-10-13T14:01:16.907Z,10.68
2022-10-13T14:03:44.327Z,25.48
2022-10-13T14:06:18.905Z,14.50
2022-10-13T14:08:46.783Z,26.63
2022-10-13T14:11:14.111Z,14.73
2022-10-13T14:13:43.577Z,10.13
2022-10-13T14:16:16.901Z,9.77
2022-10-13T14:18:46.792Z,9.48
2022-10-13T14:21:16.435Z,8.95
2022-10-13T14:23:47.068Z,9.18
2022-10-13T14:26:15.575Z,9.00
2022-10-13T14:28:44.624Z,8.73
2022-10-13T14:31:12.065Z,9.27
2022-10-13T14:33:39.349Z,8.95
2022-10-13T14:36:07.344Z,8.68
2022-10-13T14:38:35.106Z,8.25
2022-10-13T14:41:04.662Z,8.75
2022-10-13T14:43:32.264Z,9.30
2022-10-13T14:46:09.511Z,9.07
2022-10-13T14:48:39.930Z,12.90
2022-10-13T14:51:09.695Z,9.88
2022-10-13T14:53:39.679Z,9.75
2022-10-13T14:56:29.995Z,10.15
2022-10-13T14:59:02.228Z,11.10
2022-10-13T15:01:33.506Z,10.73
2022-10-13T15:04:04.665Z,9.27
2022-10-13T15:06:34.692Z,9.35
2022-10-13T15:09:02.077Z,9.38
2022-10-13T15:11:29.406Z,10.00
2022-10-13T15:13:56.721Z,9.40
2022-10-13T15:16:29.649Z,8.55
2022-10-13T15:18:57.176Z,9.25
2022-10-13T15:21:26.968Z,8.73
2022-10-13T15:23:56.337Z,9.30
2022-10-13T15:26:26.004Z,9.05
2022-10-13T15:28:53.845Z,9.40
2022-10-13T15:31:24.474Z,8.82
2022-10-13T15:33:53.587Z,9.27
2022-10-13T15:36:22.521Z,13.75
2022-10-13T15:38:50.552Z,13.55
2022-10-13T15:41:18.575Z,12.75
2022-10-13T15:43:45.871Z,10.40
2022-10-13T15:46:21.718Z,9.80
2022-10-13T15:48:53.334Z,10.40
2022-10-13T15:53:49.124Z,9.07
2022-10-13T15:56:20.713Z,9.35
2022-10-13T16:01:15.226Z,9.52
2022-10-13T16:03:44.936Z,9.18
2022-10-13T16:06:15.716Z,10.02
2022-10-13T16:08:45.196Z,9.60
2022-10-13T16:11:17.443Z,9.27
2022-10-13T16:13:51.617Z,9.02
2022-10-13T16:16:19.600Z,9.93
2022-10-13T16:18:51.309Z,12.68
2022-10-13T16:21:23.954Z,12.52
2022-10-13T16:23:53.875Z,11.55
2022-10-13T16:26:24.059Z,10.50
2022-10-13T16:28:56.800Z,10.52
2022-10-13T16:31:29.112Z,10.40
2022-10-13T16:33:58.646Z,9.77
2022-10-13T16:36:26.062Z,10.05
2022-10-13T16:38:56.679Z,9.60
2022-10-13T16:41:24.001Z,10.23
2022-10-13T16:43:51.272Z,10.15
2022-10-13T16:46:20.316Z,10.15
2022-10-13T16:48:50.094Z,9.68
2022-10-13T16:51:23.030Z,10.23
2022-10-13T16:53:52.947Z,10.55
2022-10-13T16:56:22.397Z,10.15
2022-10-13T16:59:00.786Z,10.45
2022-10-13T17:01:28.992Z,10.80
2022-10-13T17:03:58.920Z,11.38
2022-10-13T17:06:30.506Z,12.82
2022-10-13T17:11:29.922Z,12.32
2022-10-13T17:14:00.536Z,11.85
2022-10-13T17:16:28.280Z,12.32
2022-10-13T17:18:56.017Z,11.90
2022-10-13T17:21:25.467Z,12.07
2022-10-13T17:23:55.728Z,13.45
2022-10-13T17:26:23.107Z,13.27
2022-10-13T17:28:52.678Z,12.25
2022-10-13T17:31:23.184Z,13.20
2022-10-13T17:33:51.755Z,12.77
2022-10-13T17:36:24.148Z,13.48
2022-10-13T17:38:55.635Z,13.68
2022-10-13T17:41:23.831Z,12.63
2022-10-13T17:43:52.351Z,13.95
2022-10-13T17:46:40.801Z,13.48
2022-10-13T17:49:11.598Z,13.95
2022-10-13T17:51:40.441Z,15.93
2022-10-13T17:54:15.583Z,15.93
2022-10-13T17:56:45.179Z,16.17
2022-10-13T17:59:13.551Z,42.60
2022-10-13T18:01:44.560Z,32.08
2022-10-13T18:04:15.193Z,28.23
2022-10-13T18:06:44.023Z,18.20
2022-10-13T18:09:14.734Z,17.30
2022-10-13T18:11:48.727Z,18.50
2022-10-13T18:14:21.506Z,17.90
2022-10-13T18:16:49.824Z,20.92
2022-10-13T18:19:19.521Z,29.20
2022-10-13T18:21:48.912Z,24.65
2022-10-13T18:24:18.632Z,26.50
2022-10-13T18:26:46.255Z,22.05
2022-10-13T18:29:13.803Z,18.83
2022-10-13T18:31:44.377Z,16.98
2022-10-13T18:34:18.495Z,17.95
2022-10-13T18:36:54.060Z,19.08
2022-10-13T18:39:25.604Z,20.13
2022-10-13T18:44:21.832Z,18.10
2022-10-13T18:46:50.884Z,18.42
2022-10-13T18:49:21.444Z,17.73
2022-10-13T18:51:51.216Z,17.10
2022-10-13T18:54:20.635Z,18.27
2022-10-13T18:56:47.916Z,37.83
2022-10-13T18:59:17.770Z,29.27
2022-10-13T19:01:45.393Z,29.10
2022-10-13T19:04:14.729Z,27.60
2022-10-13T19:06:42.176Z,26.20
2022-10-13T19:09:13.186Z,21.52
2022-10-13T19:11:45.372Z,35.50
2022-10-13T19:14:14.891Z,22.65
2022-10-13T19:16:44.098Z,18.45
2022-10-13T19:19:14.272Z,16.83
2022-10-13T19:21:44.112Z,31.13
2022-10-13T19:24:11.725Z,19.80
2022-10-13T19:26:39.420Z,16.02
2022-10-13T19:29:09.875Z,20.33
2022-10-13T19:31:38.538Z,20.05
2022-10-13T19:34:08.635Z,16.20
2022-10-13T19:36:45.091Z,16.55
2022-10-13T19:39:18.516Z,15.88
2022-10-13T19:41:46.853Z,15.50
2022-10-13T19:44:18.398Z,15.23
2022-10-13T19:49:16.214Z,16.17
2022-10-13T19:51:43.692Z,17.15
2022-10-13T19:54:11.773Z,18.40
2022-10-13T19:56:41.855Z,18.38
2022-10-13T19:59:09.208Z,17.75
2022-10-13T20:01:42.432Z,17.90
2022-10-13T20:04:12.415Z,18.05
2022-10-13T20:06:39.889Z,17.80
2022-10-13T20:09:09.315Z,16.95
2022-10-13T20:11:36.675Z,18.15
2022-10-13T20:14:06.412Z,18.02
2022-10-13T20:16:33.888Z,17.92
2022-10-13T20:19:01.621Z,16.98
2022-10-13T20:21:29.628Z,18.05
2022-10-13T20:23:57.299Z,17.13
2022-10-13T20:26:29.851Z,17.40
2022-10-13T20:28:59.949Z,17.20
2022-10-13T20:31:27.317Z,17.27
2022-10-13T20:33:56.039Z,16.65
2022-10-13T20:36:26.747Z,17.02
2022-10-13T20:38:54.893Z,16.30
2022-10-13T20:41:26.099Z,16.73
2022-10-13T20:43:57.906Z,16.17
2022-10-13T20:46:27.735Z,15.07
2022-10-13T20:49:10.419Z,15.85
2022-10-13T20:51:39.651Z,15.02
2022-10-13T20:54:07.652Z,15.27
2022-10-13T20:56:35.771Z,14.38
2022-10-13T20:59:04.880Z,14.40
2022-10-13T21:01:35.028Z,13.98
2022-10-13T21:04:02.673Z,14.95
2022-10-13T21:06:30.106Z,14.35
2022-10-13T21:08:57.397Z,14.27
2022-10-13T21:11:25.028Z,14.52
2022-10-13T21:13:55.609Z,14.20
2022-10-13T21:16:31.982Z,14.30
2022-10-13T21:18:59.549Z,13.80
2022-10-13T21:21:29.524Z,13.35
2022-10-13T21:23:58.976Z,14.35
2022-10-13T21:26:28.672Z,14.52
2022-10-13T21:28:59.148Z,14.10
2022-10-13T21:31:29.922Z,13.57
2022-10-13T21:33:57.755Z,13.45
2022-10-13T21:36:30.556Z,13.40
2022-10-13T21:39:02.478Z,12.82
2022-10-13T21:41:30.120Z,14.57
2022-10-13T21:43:57.789Z,13.88
2022-10-13T21:46:28.274Z,13.95
2022-10-13T21:49:03.016Z,13.88
2022-10-13T21:51:38.553Z,12.98
2022-10-13T21:54:11.756Z,14.95
2022-10-13T21:56:40.271Z,13.60
2022-10-13T21:59:08.849Z,15.27
2022-10-13T22:01:36.136Z,14.20
2022-10-13T22:04:06.277Z,14.80
2022-10-13T22:06:34.469Z,14.70
2022-10-13T22:09:05.030Z,14.52
2022-10-13T22:11:35.369Z,13.95
2022-10-13T22:14:05.722Z,13.55
2022-10-13T22:16:39.341Z,14.20
2022-10-13T22:19:10.606Z,14.63
2022-10-13T22:21:44.433Z,13.63
2022-10-13T22:24:19.898Z,14.13
2022-10-13T22:26:48.565Z,13.02
2022-10-13T22:29:22.970Z,13.15
2022-10-13T22:31:54.752Z,12.82
2022-10-13T22:34:24.473Z,12.48
2022-10-13T22:36:52.157Z,13.25
2022-10-13T22:39:22.060Z,13.15
2022-10-13T22:41:53.948Z,12.65
2022-10-13T22:44:23.557Z,12.30
2022-10-13T22:46:53.275Z,12.93
2022-10-13T22:49:20.510Z,13.63
2022-10-13T22:51:47.744Z,12.95
2022-10-13T22:54:14.979Z,13.02
2022-10-13T22:56:44.665Z,13.82
2022-10-13T22:59:12.920Z,13.60
2022-10-13T23:01:42.555Z,13.00
2022-10-13T23:04:12.244Z,12.70
2022-10-13T23:06:41.862Z,12.27
2022-10-13T23:09:13.193Z,12.77
2022-10-13T23:11:40.848Z,13.18
2022-10-13T23:14:13.182Z,12.07
2022-10-13T23:16:42.559Z,12.85
2022-10-13T23:19:09.824Z,12.18
2022-10-13T23:21:40.197Z,12.38
2022-10-13T23:24:08.192Z,12.80
2022-10-13T23:26:35.479Z,12.32
2022-10-13T23:29:04.565Z,12.70
2022-10-13T23:31:32.050Z,13.10
2022-10-13T23:34:01.769Z,11.32
2022-10-13T23:36:31.359Z,11.68
2022-10-13T23:39:05.708Z,12.05
2022-10-13T23:41:33.257Z,12.55
2022-10-13T23:44:00.800Z,12.32
2022-10-13T23:46:28.416Z,12.30
2022-10-13T23:48:56.159Z,13.05
2022-10-13T23:51:27.833Z,13.98
2022-10-13T23:56:23.061Z,12.75
2022-10-13T23:58:53.327Z,12.80
